sensor_id;sensor_type;location;lat;lon;timestamp;P1;durP1;ratioP1;P2;durP2;ratioP2
20890;SDS011;10605;52.968;8.844;2024-03-23T00:55:37;38.55;;;6.78;;
20890;SDS011;10605;52.968;8.844;2024-03-23T00:58:02;26.95;;;5.63;;
20890;SDS011;10605;52.968;8.844;2024-03-23T01:00:28;37.80;;;5.88;;
20890;SDS011;10605;52.968;8.844;2024-03-23T01:02:54;30.17;;;5.78;;
20890;SDS011;10605;52.968;8.844;2024-03-23T01:05:19;21.63;;;5.18;;
20890;SDS011;10605;52.968;8.844;2024-03-23T01:07:45;37.42;;;6.88;;
20890;SDS011;10605;52.968;8.844;2024-03-23T01:10:10;37.90;;;6.75;;
20890;SDS011;10605;52.968;8.844;2024-03-23T01:12:36;33.30;;;6.07;;
20890;SDS011;10605;52.968;8.844;2024-03-23T01:15:01;27.35;;;5.93;;
20890;SDS011;10605;52.968;8.844;2024-03-23T01:17:27;29.40;;;5.90;;
20890;SDS011;10605;52.968;8.844;2024-03-23T01:19:53;35.80;;;6.03;;
20890;SDS011;10605;52.968;8.844;2024-03-23T01:22:19;41.00;;;7.78;;
20890;SDS011;10605;52.968;8.844;2024-03-23T01:24:44;31.90;;;5.82;;
20890;SDS011;10605;52.968;8.844;2024-03-23T01:27:10;34.95;;;5.78;;
20890;SDS011;10605;52.968;8.844;2024-03-23T01:29:35;30.33;;;6.78;;
20890;SDS011;10605;52.968;8.844;2024-03-23T01:32:01;32.78;;;6.95;;
20890;SDS011;10605;52.968;8.844;2024-03-23T01:34:27;37.45;;;6.53;;
20890;SDS011;10605;52.968;8.844;2024-03-23T01:36:53;34.30;;;5.55;;
20890;SDS011;10605;52.968;8.844;2024-03-23T01:39:18;33.10;;;6.32;;
20890;SDS011;10605;52.968;8.844;2024-03-23T01:41:44;41.53;;;6.78;;
20890;SDS011;10605;52.968;8.844;2024-03-23T01:44:10;32.15;;;5.57;;
20890;SDS011;10605;52.968;8.844;2024-03-23T01:46:36;27.77;;;5.65;;
20890;SDS011;10605;52.968;8.844;2024-03-23T01:49:03;37.60;;;6.95;;
20890;SDS011;10605;52.968;8.844;2024-03-23T01:51:32;28.00;;;5.93;;
20890;SDS011;10605;52.968;8.844;2024-03-23T01:53:59;35.83;;;6.05;;
20890;SDS011;10605;52.968;8.844;2024-03-23T01:56:28;38.92;;;7.15;;
20890;SDS011;10605;52.968;8.844;2024-03-23T01:58:55;47.83;;;6.38;;
20890;SDS011;10605;52.968;8.844;2024-03-23T02:01:20;41.30;;;6.95;;
20890;SDS011;10605;52.968;8.844;2024-03-23T02:03:46;41.15;;;6.55;;
20890;SDS011;10605;52.968;8.844;2024-03-23T02:06:12;25.77;;;7.47;;
20890;SDS011;10605;52.968;8.844;2024-03-23T02:08:37;34.33;;;6.03;;
20890;SDS011;10605;52.968;8.844;2024-03-23T02:11:04;32.00;;;5.88;;
20890;SDS011;10605;52.968;8.844;2024-03-23T02:13:29;32.85;;;6.78;;
20890;SDS011;10605;52.968;8.844;2024-03-23T02:15:56;32.20;;;7.03;;
20890;SDS011;10605;52.968;8.844;2024-03-23T02:18:22;39.88;;;5.78;;
20890;SDS011;10605;52.968;8.844;2024-03-23T02:20:48;31.42;;;6.07;;
20890;SDS011;10605;52.968;8.844;2024-03-23T02:23:13;43.78;;;6.50;;
20890;SDS011;10605;52.968;8.844;2024-03-23T02:25:40;37.25;;;5.68;;
20890;SDS011;10605;52.968;8.844;2024-03-23T02:28:05;43.42;;;6.72;;
20890;SDS011;10605;52.968;8.844;2024-03-23T02:30:31;38.17;;;6.22;;
20890;SDS011;10605;52.968;8.844;2024-03-23T02:32:57;37.00;;;6.60;;
20890;SDS011;10605;52.968;8.844;2024-03-23T02:35:22;35.67;;;7.55;;
20890;SDS011;10605;52.968;8.844;2024-03-23T02:37:48;35.78;;;5.90;;
20890;SDS011;10605;52.968;8.844;2024-03-23T02:40:14;40.13;;;6.22;;
20890;SDS011;10605;52.968;8.844;2024-03-23T02:42:40;34.55;;;6.25;;
20890;SDS011;10605;52.968;8.844;2024-03-23T02:45:06;35.13;;;6.03;;
20890;SDS011;10605;52.968;8.844;2024-03-23T02:47:32;36.28;;;6.63;;
20890;SDS011;10605;52.968;8.844;2024-03-23T02:49:58;34.45;;;6.90;;
20890;SDS011;10605;52.968;8.844;2024-03-23T02:52:24;41.03;;;6.03;;
20890;SDS011;10605;52.968;8.844;2024-03-23T02:54:49;37.03;;;7.00;;
20890;SDS011;10605;52.968;8.844;2024-03-23T02:57:15;37.38;;;6.22;;
20890;SDS011;10605;52.968;8.844;2024-03-23T02:59:41;32.08;;;6.55;;
20890;SDS011;10605;52.968;8.844;2024-03-23T03:02:07;30.85;;;6.53;;
20890;SDS011;10605;52.968;8.844;2024-03-23T03:04:33;27.58;;;6.68;;
20890;SDS011;10605;52.968;8.844;2024-03-23T03:06:58;32.85;;;5.97;;
20890;SDS011;10605;52.968;8.844;2024-03-23T03:09:24;22.38;;;5.88;;
20890;SDS011;10605;52.968;8.844;2024-03-23T03:11:50;31.88;;;6.18;;
20890;SDS011;10605;52.968;8.844;2024-03-23T03:14:15;34.47;;;6.00;;
20890;SDS011;10605;52.968;8.844;2024-03-23T03:16:41;27.80;;;6.00;;
20890;SDS011;10605;52.968;8.844;2024-03-23T03:19:06;48.70;;;7.10;;
20890;SDS011;10605;52.968;8.844;2024-03-23T03:21:32;40.08;;;6.38;;
20890;SDS011;10605;52.968;8.844;2024-03-23T03:23:58;32.15;;;6.43;;
20890;SDS011;10605;52.968;8.844;2024-03-23T03:26:23;38.38;;;5.65;;
20890;SDS011;10605;52.968;8.844;2024-03-23T03:28:49;28.70;;;5.20;;
20890;SDS011;10605;52.968;8.844;2024-03-23T03:31:16;33.47;;;6.35;;
20890;SDS011;10605;52.968;8.844;2024-03-23T03:33:42;29.38;;;6.20;;
20890;SDS011;10605;52.968;8.844;2024-03-23T03:36:08;33.67;;;6.72;;
20890;SDS011;10605;52.968;8.844;2024-03-23T03:38:33;31.27;;;7.55;;
20890;SDS011;10605;52.968;8.844;2024-03-23T03:41:03;31.77;;;6.28;;
20890;SDS011;10605;52.968;8.844;2024-03-23T03:43:29;32.08;;;6.28;;
20890;SDS011;10605;52.968;8.844;2024-03-23T03:45:56;28.60;;;6.82;;
20890;SDS011;10605;52.968;8.844;2024-03-23T03:48:22;25.73;;;5.85;;
20890;SDS011;10605;52.968;8.844;2024-03-23T03:50:48;39.30;;;6.22;;
20890;SDS011;10605;52.968;8.844;2024-03-23T03:53:14;47.13;;;6.80;;
20890;SDS011;10605;52.968;8.844;2024-03-23T03:55:40;39.38;;;6.55;;
20890;SDS011;10605;52.968;8.844;2024-03-23T03:58:05;37.17;;;6.80;;
20890;SDS011;10605;52.968;8.844;2024-03-23T04:00:31;41.67;;;7.35;;
20890;SDS011;10605;52.968;8.844;2024-03-23T04:02:57;35.00;;;6.75;;
20890;SDS011;10605;52.968;8.844;2024-03-23T04:05:23;37.08;;;6.07;;
20890;SDS011;10605;52.968;8.844;2024-03-23T04:07:49;37.03;;;6.75;;
20890;SDS011;10605;52.968;8.844;2024-03-23T04:10:14;30.90;;;6.30;;
20890;SDS011;10605;52.968;8.844;2024-03-23T04:12:40;39.70;;;6.63;;
20890;SDS011;10605;52.968;8.844;2024-03-23T04:15:06;32.78;;;6.25;;
20890;SDS011;10605;52.968;8.844;2024-03-23T04:17:33;45.45;;;6.78;;
20890;SDS011;10605;52.968;8.844;2024-03-23T04:19:59;32.78;;;6.28;;
20890;SDS011;10605;52.968;8.844;2024-03-23T04:22:26;39.80;;;6.20;;
20890;SDS011;10605;52.968;8.844;2024-03-23T04:24:55;40.40;;;7.00;;
20890;SDS011;10605;52.968;8.844;2024-03-23T04:27:22;39.38;;;7.65;;
20890;SDS011;10605;52.968;8.844;2024-03-23T04:29:51;44.05;;;6.95;;
20890;SDS011;10605;52.968;8.844;2024-03-23T04:32:18;41.20;;;7.15;;
20890;SDS011;10605;52.968;8.844;2024-03-23T04:34:44;44.55;;;6.97;;
20890;SDS011;10605;52.968;8.844;2024-03-23T04:37:10;41.50;;;7.22;;
20890;SDS011;10605;52.968;8.844;2024-03-23T04:39:36;41.67;;;7.22;;
20890;SDS011;10605;52.968;8.844;2024-03-23T04:42:02;38.78;;;7.65;;
20890;SDS011;10605;52.968;8.844;2024-03-23T04:44:28;34.63;;;7.22;;
20890;SDS011;10605;52.968;8.844;2024-03-23T04:46:55;41.67;;;6.78;;
20890;SDS011;10605;52.968;8.844;2024-03-23T04:49:21;41.20;;;7.22;;
20890;SDS011;10605;52.968;8.844;2024-03-23T04:51:47;40.97;;;7.65;;
20890;SDS011;10605;52.968;8.844;2024-03-23T04:54:12;54.00;;;8.55;;
20890;SDS011;10605;52.968;8.844;2024-03-23T04:56:38;45.92;;;7.28;;
20890;SDS011;10605;52.968;8.844;2024-03-23T04:59:04;50.05;;;7.63;;
20890;SDS011;10605;52.968;8.844;2024-03-23T05:01:33;38.33;;;7.28;;
20890;SDS011;10605;52.968;8.844;2024-03-23T05:03:58;35.22;;;7.75;;
20890;SDS011;10605;52.968;8.844;2024-03-23T05:06:25;46.60;;;8.15;;
20890;SDS011;10605;52.968;8.844;2024-03-23T05:08:51;38.80;;;7.10;;
20890;SDS011;10605;52.968;8.844;2024-03-23T05:11:16;35.95;;;7.45;;
20890;SDS011;10605;52.968;8.844;2024-03-23T05:13:43;28.70;;;7.60;;
20890;SDS011;10605;52.968;8.844;2024-03-23T05:16:09;28.80;;;7.28;;
20890;SDS011;10605;52.968;8.844;2024-03-23T05:18:35;31.98;;;7.10;;
20890;SDS011;10605;52.968;8.844;2024-03-23T05:21:01;32.95;;;8.55;;
20890;SDS011;10605;52.968;8.844;2024-03-23T05:23:28;32.88;;;7.85;;
20890;SDS011;10605;52.968;8.844;2024-03-23T05:25:54;38.90;;;7.80;;
20890;SDS011;10605;52.968;8.844;2024-03-23T05:28:20;31.30;;;8.50;;
20890;SDS011;10605;52.968;8.844;2024-03-23T05:30:50;46.08;;;8.15;;
20890;SDS011;10605;52.968;8.844;2024-03-23T05:33:20;41.10;;;7.45;;
20890;SDS011;10605;52.968;8.844;2024-03-23T05:35:46;39.17;;;7.78;;
20890;SDS011;10605;52.968;8.844;2024-03-23T05:38:12;42.80;;;6.57;;
20890;SDS011;10605;52.968;8.844;2024-03-23T05:40:39;37.45;;;7.22;;
20890;SDS011;10605;52.968;8.844;2024-03-23T05:43:05;40.83;;;8.32;;
20890;SDS011;10605;52.968;8.844;2024-03-23T05:45:32;40.30;;;7.88;;
20890;SDS011;10605;52.968;8.844;2024-03-23T05:47:58;36.03;;;6.95;;
20890;SDS011;10605;52.968;8.844;2024-03-23T05:50:23;44.30;;;6.65;;
20890;SDS011;10605;52.968;8.844;2024-03-23T05:52:50;39.42;;;6.53;;
20890;SDS011;10605;52.968;8.844;2024-03-23T05:55:17;42.58;;;6.78;;
20890;SDS011;10605;52.968;8.844;2024-03-23T05:57:43;48.30;;;7.80;;
20890;SDS011;10605;52.968;8.844;2024-03-23T06:00:08;37.00;;;7.28;;
20890;SDS011;10605;52.968;8.844;2024-03-23T06:02:43;32.33;;;6.20;;
20890;SDS011;10605;52.968;8.844;2024-03-23T06:05:12;30.98;;;6.90;;
20890;SDS011;10605;52.968;8.844;2024-03-23T06:07:37;30.63;;;6.53;;
20890;SDS011;10605;52.968;8.844;2024-03-23T06:10:04;42.08;;;7.07;;
20890;SDS011;10605;52.968;8.844;2024-03-23T06:12:30;41.13;;;6.38;;
20890;SDS011;10605;52.968;8.844;2024-03-23T06:14:57;30.33;;;6.15;;
20890;SDS011;10605;52.968;8.844;2024-03-23T06:17:23;30.70;;;6.55;;
20890;SDS011;10605;52.968;8.844;2024-03-23T06:19:48;41.40;;;6.00;;
20890;SDS011;10605;52.968;8.844;2024-03-23T06:22:14;43.78;;;7.80;;
20890;SDS011;10605;52.968;8.844;2024-03-23T06:24:40;40.03;;;7.45;;
20890;SDS011;10605;52.968;8.844;2024-03-23T06:27:06;45.28;;;7.13;;
20890;SDS011;10605;52.968;8.844;2024-03-23T06:29:31;36.63;;;6.30;;
20890;SDS011;10605;52.968;8.844;2024-03-23T06:31:57;33.30;;;7.57;;
20890;SDS011;10605;52.968;8.844;2024-03-23T06:34:23;33.88;;;7.35;;
20890;SDS011;10605;52.968;8.844;2024-03-23T06:36:49;31.10;;;6.20;;
20890;SDS011;10605;52.968;8.844;2024-03-23T06:39:17;30.83;;;6.35;;
20890;SDS011;10605;52.968;8.844;2024-03-23T06:41:50;24.52;;;6.78;;
20890;SDS011;10605;52.968;8.844;2024-03-23T06:44:17;25.85;;;5.05;;
20890;SDS011;10605;52.968;8.844;2024-03-23T06:46:44;24.80;;;4.95;;
20890;SDS011;10605;52.968;8.844;2024-03-23T06:49:10;30.13;;;5.25;;
20890;SDS011;10605;52.968;8.844;2024-03-23T06:51:35;24.73;;;5.07;;
20890;SDS011;10605;52.968;8.844;2024-03-23T06:54:02;28.80;;;5.18;;
20890;SDS011;10605;52.968;8.844;2024-03-23T06:56:29;25.08;;;5.10;;
20890;SDS011;10605;52.968;8.844;2024-03-23T06:58:55;20.55;;;4.38;;
20890;SDS011;10605;52.968;8.844;2024-03-23T07:01:21;25.73;;;5.10;;
20890;SDS011;10605;52.968;8.844;2024-03-23T07:03:47;19.52;;;4.32;;
20890;SDS011;10605;52.968;8.844;2024-03-23T07:06:12;25.55;;;4.85;;
20890;SDS011;10605;52.968;8.844;2024-03-23T07:08:38;24.65;;;4.95;;
20890;SDS011;10605;52.968;8.844;2024-03-23T07:11:03;21.13;;;4.57;;
20890;SDS011;10605;52.968;8.844;2024-03-23T07:13:29;21.33;;;4.60;;
20890;SDS011;10605;52.968;8.844;2024-03-23T07:15:55;24.63;;;4.68;;
20890;SDS011;10605;52.968;8.844;2024-03-23T07:18:22;19.52;;;6.07;;
20890;SDS011;10605;52.968;8.844;2024-03-23T07:20:52;24.33;;;5.30;;
20890;SDS011;10605;52.968;8.844;2024-03-23T07:23:19;19.27;;;4.53;;
20890;SDS011;10605;52.968;8.844;2024-03-23T07:25:44;23.50;;;8.05;;
20890;SDS011;10605;52.968;8.844;2024-03-23T07:28:10;16.80;;;5.50;;
20890;SDS011;10605;52.968;8.844;2024-03-23T07:30:36;42.97;;;13.88;;
20890;SDS011;10605;52.968;8.844;2024-03-23T07:33:01;20.17;;;7.30;;
20890;SDS011;10605;52.968;8.844;2024-03-23T07:35:27;26.90;;;8.82;;
20890;SDS011;10605;52.968;8.844;2024-03-23T07:37:52;20.90;;;5.80;;
20890;SDS011;10605;52.968;8.844;2024-03-23T07:40:18;20.27;;;5.20;;
20890;SDS011;10605;52.968;8.844;2024-03-23T07:42:43;13.73;;;3.92;;
20890;SDS011;10605;52.968;8.844;2024-03-23T07:45:09;19.27;;;4.88;;
20890;SDS011;10605;52.968;8.844;2024-03-23T07:47:35;16.65;;;4.47;;
20890;SDS011;10605;52.968;8.844;2024-03-23T07:50:01;19.05;;;4.75;;
20890;SDS011;10605;52.968;8.844;2024-03-23T07:52:30;22.88;;;4.47;;
20890;SDS011;10605;52.968;8.844;2024-03-23T07:54:55;20.05;;;4.65;;
20890;SDS011;10605;52.968;8.844;2024-03-23T07:57:21;18.35;;;4.05;;
20890;SDS011;10605;52.968;8.844;2024-03-23T07:59:46;23.25;;;4.07;;
20890;SDS011;10605;52.968;8.844;2024-03-23T08:02:12;20.20;;;4.05;;
20890;SDS011;10605;52.968;8.844;2024-03-23T08:04:38;13.90;;;4.07;;
20890;SDS011;10605;52.968;8.844;2024-03-23T08:07:03;15.10;;;4.15;;
20890;SDS011;10605;52.968;8.844;2024-03-23T08:09:29;22.95;;;4.38;;
20890;SDS011;10605;52.968;8.844;2024-03-23T08:11:55;16.95;;;4.30;;
20890;SDS011;10605;52.968;8.844;2024-03-23T08:14:20;26.20;;;4.32;;
20890;SDS011;10605;52.968;8.844;2024-03-23T08:16:46;18.05;;;3.75;;
20890;SDS011;10605;52.968;8.844;2024-03-23T08:19:14;20.73;;;4.18;;
20890;SDS011;10605;52.968;8.844;2024-03-23T08:21:40;17.20;;;3.95;;
20890;SDS011;10605;52.968;8.844;2024-03-23T08:24:06;19.10;;;3.95;;
20890;SDS011;10605;52.968;8.844;2024-03-23T08:26:32;22.20;;;4.47;;
20890;SDS011;10605;52.968;8.844;2024-03-23T08:28:58;21.40;;;4.28;;
20890;SDS011;10605;52.968;8.844;2024-03-23T08:31:23;19.25;;;3.63;;
20890;SDS011;10605;52.968;8.844;2024-03-23T08:33:49;15.25;;;3.35;;
20890;SDS011;10605;52.968;8.844;2024-03-23T08:36:14;14.40;;;3.67;;
20890;SDS011;10605;52.968;8.844;2024-03-23T08:38:40;16.05;;;3.35;;
20890;SDS011;10605;52.968;8.844;2024-03-23T08:41:09;14.40;;;3.10;;
20890;SDS011;10605;52.968;8.844;2024-03-23T08:43:36;17.15;;;3.33;;
20890;SDS011;10605;52.968;8.844;2024-03-23T08:46:13;20.67;;;3.75;;
20890;SDS011;10605;52.968;8.844;2024-03-23T08:48:41;12.75;;;3.33;;
20890;SDS011;10605;52.968;8.844;2024-03-23T08:51:09;15.88;;;4.38;;
20890;SDS011;10605;52.968;8.844;2024-03-23T08:53:35;17.60;;;4.57;;
20890;SDS011;10605;52.968;8.844;2024-03-23T08:56:02;14.20;;;4.28;;
20890;SDS011;10605;52.968;8.844;2024-03-23T08:58:30;15.73;;;3.72;;
20890;SDS011;10605;52.968;8.844;2024-03-23T09:01:02;15.05;;;3.65;;
20890;SDS011;10605;52.968;8.844;2024-03-23T09:03:29;14.75;;;3.55;;
20890;SDS011;10605;52.968;8.844;2024-03-23T09:05:56;15.07;;;3.90;;
20890;SDS011;10605;52.968;8.844;2024-03-23T09:08:23;15.45;;;3.40;;
20890;SDS011;10605;52.968;8.844;2024-03-23T09:10:49;11.38;;;3.03;;
20890;SDS011;10605;52.968;8.844;2024-03-23T09:13:14;15.38;;;3.05;;
20890;SDS011;10605;52.968;8.844;2024-03-23T09:15:50;9.90;;;2.80;;
20890;SDS011;10605;52.968;8.844;2024-03-23T09:18:18;15.15;;;3.50;;
20890;SDS011;10605;52.968;8.844;2024-03-23T09:20:44;14.23;;;3.08;;
20890;SDS011;10605;52.968;8.844;2024-03-23T09:23:10;16.90;;;3.30;;
20890;SDS011;10605;52.968;8.844;2024-03-23T09:25:36;9.40;;;3.35;;
20890;SDS011;10605;52.968;8.844;2024-03-23T09:28:05;9.20;;;2.75;;
20890;SDS011;10605;52.968;8.844;2024-03-23T09:30:32;6.90;;;2.00;;
20890;SDS011;10605;52.968;8.844;2024-03-23T09:32:58;9.57;;;2.00;;
20890;SDS011;10605;52.968;8.844;2024-03-23T09:35:24;8.00;;;2.13;;
20890;SDS011;10605;52.968;8.844;2024-03-23T09:37:50;5.85;;;2.33;;
20890;SDS011;10605;52.968;8.844;2024-03-23T09:40:15;4.85;;;1.35;;
20890;SDS011;10605;52.968;8.844;2024-03-23T09:42:41;6.68;;;1.35;;
20890;SDS011;10605;52.968;8.844;2024-03-23T09:45:15;6.88;;;1.55;;
20890;SDS011;10605;52.968;8.844;2024-03-23T09:47:51;4.35;;;1.27;;
20890;SDS011;10605;52.968;8.844;2024-03-23T09:50:17;4.53;;;1.25;;
20890;SDS011;10605;52.968;8.844;2024-03-23T09:52:43;2.40;;;0.93;;
20890;SDS011;10605;52.968;8.844;2024-03-23T09:55:10;4.20;;;1.30;;
20890;SDS011;10605;52.968;8.844;2024-03-23T09:57:36;2.35;;;0.90;;
20890;SDS011;10605;52.968;8.844;2024-03-23T10:00:02;2.85;;;0.93;;
20890;SDS011;10605;52.968;8.844;2024-03-23T10:02:28;2.88;;;0.90;;
20890;SDS011;10605;52.968;8.844;2024-03-23T10:04:54;3.95;;;1.20;;
20890;SDS011;10605;52.968;8.844;2024-03-23T10:07:20;6.05;;;1.52;;
20890;SDS011;10605;52.968;8.844;2024-03-23T10:09:50;5.18;;;1.20;;
20890;SDS011;10605;52.968;8.844;2024-03-23T10:12:17;9.43;;;1.40;;
20890;SDS011;10605;52.968;8.844;2024-03-23T10:14:43;2.13;;;1.10;;
20890;SDS011;10605;52.968;8.844;2024-03-23T10:19:51;6.57;;;1.52;;
20890;SDS011;10605;52.968;8.844;2024-03-23T10:22:23;7.50;;;1.80;;
20890;SDS011;10605;52.968;8.844;2024-03-23T10:24:49;5.60;;;2.03;;
20890;SDS011;10605;52.968;8.844;2024-03-23T10:27:16;8.88;;;2.15;;
20890;SDS011;10605;52.968;8.844;2024-03-23T10:29:44;8.50;;;2.15;;
20890;SDS011;10605;52.968;8.844;2024-03-23T10:32:13;9.85;;;2.30;;
20890;SDS011;10605;52.968;8.844;2024-03-23T10:34:40;8.00;;;2.00;;
20890;SDS011;10605;52.968;8.844;2024-03-23T10:37:06;7.40;;;2.20;;
20890;SDS011;10605;52.968;8.844;2024-03-23T10:39:33;9.02;;;2.55;;
20890;SDS011;10605;52.968;8.844;2024-03-23T10:42:02;10.98;;;2.22;;
20890;SDS011;10605;52.968;8.844;2024-03-23T10:44:29;4.88;;;2.10;;
20890;SDS011;10605;52.968;8.844;2024-03-23T10:46:56;11.35;;;2.72;;
20890;SDS011;10605;52.968;8.844;2024-03-23T10:49:29;4.93;;;2.20;;
20890;SDS011;10605;52.968;8.844;2024-03-23T10:51:57;9.95;;;2.75;;
20890;SDS011;10605;52.968;8.844;2024-03-23T10:54:27;13.10;;;2.30;;
20890;SDS011;10605;52.968;8.844;2024-03-23T10:56:59;14.10;;;2.10;;
20890;SDS011;10605;52.968;8.844;2024-03-23T10:59:39;6.55;;;2.25;;
20890;SDS011;10605;52.968;8.844;2024-03-23T11:02:05;14.15;;;2.20;;
20890;SDS011;10605;52.968;8.844;2024-03-23T11:04:36;11.55;;;2.47;;
20890;SDS011;10605;52.968;8.844;2024-03-23T11:09:49;6.50;;;1.50;;
20890;SDS011;10605;52.968;8.844;2024-03-23T11:14:52;4.15;;;1.30;;
20890;SDS011;10605;52.968;8.844;2024-03-23T11:17:24;5.03;;;1.58;;
20890;SDS011;10605;52.968;8.844;2024-03-23T11:20:06;3.20;;;1.38;;
20890;SDS011;10605;52.968;8.844;2024-03-23T11:27:38;4.00;;;1.00;;
20890;SDS011;10605;52.968;8.844;2024-03-23T11:30:11;3.17;;;1.20;;
20890;SDS011;10605;52.968;8.844;2024-03-23T11:32:36;3.63;;;1.33;;
20890;SDS011;10605;52.968;8.844;2024-03-23T11:35:02;5.50;;;1.33;;
20890;SDS011;10605;52.968;8.844;2024-03-23T11:37:28;8.45;;;3.35;;
20890;SDS011;10605;52.968;8.844;2024-03-23T11:39:54;4.00;;;1.40;;
20890;SDS011;10605;52.968;8.844;2024-03-23T11:42:19;4.65;;;1.30;;
20890;SDS011;10605;52.968;8.844;2024-03-23T11:44:46;3.95;;;1.17;;
20890;SDS011;10605;52.968;8.844;2024-03-23T11:47:12;4.25;;;1.50;;
20890;SDS011;10605;52.968;8.844;2024-03-23T11:49:38;2.58;;;0.98;;
20890;SDS011;10605;52.968;8.844;2024-03-23T11:52:06;5.15;;;1.33;;
20890;SDS011;10605;52.968;8.844;2024-03-23T11:54:32;7.18;;;1.52;;
20890;SDS011;10605;52.968;8.844;2024-03-23T11:57:04;5.05;;;1.55;;
20890;SDS011;10605;52.968;8.844;2024-03-23T11:59:40;4.57;;;1.40;;
20890;SDS011;10605;52.968;8.844;2024-03-23T12:02:12;3.40;;;1.48;;
20890;SDS011;10605;52.968;8.844;2024-03-23T12:04:39;5.10;;;1.70;;
20890;SDS011;10605;52.968;8.844;2024-03-23T12:07:16;4.63;;;1.63;;
20890;SDS011;10605;52.968;8.844;2024-03-23T12:10:03;4.50;;;1.55;;
20890;SDS011;10605;52.968;8.844;2024-03-23T12:12:32;5.80;;;1.60;;
20890;SDS011;10605;52.968;8.844;2024-03-23T12:17:36;5.68;;;1.38;;
20890;SDS011;10605;52.968;8.844;2024-03-23T12:20:02;4.53;;;1.67;;
20890;SDS011;10605;52.968;8.844;2024-03-23T12:22:28;5.88;;;1.42;;
20890;SDS011;10605;52.968;8.844;2024-03-23T12:24:57;3.40;;;1.10;;
20890;SDS011;10605;52.968;8.844;2024-03-23T12:27:22;2.22;;;1.13;;
20890;SDS011;10605;52.968;8.844;2024-03-23T12:29:48;2.08;;;1.27;;
20890;SDS011;10605;52.968;8.844;2024-03-23T12:32:14;2.08;;;1.05;;
20890;SDS011;10605;52.968;8.844;2024-03-23T12:34:41;2.75;;;1.08;;
20890;SDS011;10605;52.968;8.844;2024-03-23T12:37:06;3.03;;;0.60;;
20890;SDS011;10605;52.968;8.844;2024-03-23T12:39:32;0.98;;;0.60;;
20890;SDS011;10605;52.968;8.844;2024-03-23T12:42:00;3.10;;;0.60;;
20890;SDS011;10605;52.968;8.844;2024-03-23T12:44:26;1.50;;;0.75;;
20890;SDS011;10605;52.968;8.844;2024-03-23T12:46:52;6.07;;;1.10;;
20890;SDS011;10605;52.968;8.844;2024-03-23T12:49:17;4.22;;;0.85;;
20890;SDS011;10605;52.968;8.844;2024-03-23T12:51:53;3.85;;;1.00;;
20890;SDS011;10605;52.968;8.844;2024-03-23T12:54:21;2.83;;;0.88;;
20890;SDS011;10605;52.968;8.844;2024-03-23T12:56:47;2.22;;;0.77;;
20890;SDS011;10605;52.968;8.844;2024-03-23T12:59:13;1.55;;;0.93;;
20890;SDS011;10605;52.968;8.844;2024-03-23T13:01:39;2.70;;;1.00;;
20890;SDS011;10605;52.968;8.844;2024-03-23T13:04:04;3.15;;;0.73;;
20890;SDS011;10605;52.968;8.844;2024-03-23T13:06:30;4.78;;;0.90;;
20890;SDS011;10605;52.968;8.844;2024-03-23T13:09:02;2.90;;;0.77;;
20890;SDS011;10605;52.968;8.844;2024-03-23T13:11:29;4.93;;;0.90;;
20890;SDS011;10605;52.968;8.844;2024-03-23T13:13:55;0.90;;;0.70;;
20890;SDS011;10605;52.968;8.844;2024-03-23T13:16:20;3.83;;;0.98;;
20890;SDS011;10605;52.968;8.844;2024-03-23T13:18:46;2.13;;;1.05;;
20890;SDS011;10605;52.968;8.844;2024-03-23T13:21:11;1.95;;;1.13;;
20890;SDS011;10605;52.968;8.844;2024-03-23T13:23:37;3.55;;;1.00;;
20890;SDS011;10605;52.968;8.844;2024-03-23T13:26:05;3.58;;;1.05;;
20890;SDS011;10605;52.968;8.844;2024-03-23T13:28:30;4.65;;;1.40;;
20890;SDS011;10605;52.968;8.844;2024-03-23T13:30:56;4.63;;;1.40;;
20890;SDS011;10605;52.968;8.844;2024-03-23T13:33:28;3.03;;;1.13;;
20890;SDS011;10605;52.968;8.844;2024-03-23T13:35:57;6.07;;;1.60;;
20890;SDS011;10605;52.968;8.844;2024-03-23T13:38:23;4.72;;;1.25;;
20890;SDS011;10605;52.968;8.844;2024-03-23T13:40:50;6.70;;;1.42;;
20890;SDS011;10605;52.968;8.844;2024-03-23T13:43:15;3.35;;;1.05;;
20890;SDS011;10605;52.968;8.844;2024-03-23T13:45:41;10.60;;;1.60;;
20890;SDS011;10605;52.968;8.844;2024-03-23T13:48:07;5.95;;;1.25;;
20890;SDS011;10605;52.968;8.844;2024-03-23T13:50:33;5.80;;;1.27;;
20890;SDS011;10605;52.968;8.844;2024-03-23T13:52:58;3.53;;;1.45;;
20890;SDS011;10605;52.968;8.844;2024-03-23T13:55:24;3.60;;;1.17;;
20890;SDS011;10605;52.968;8.844;2024-03-23T13:57:49;2.90;;;0.95;;
20890;SDS011;10605;52.968;8.844;2024-03-23T14:00:16;3.72;;;1.10;;
20890;SDS011;10605;52.968;8.844;2024-03-23T14:02:43;1.77;;;1.00;;
20890;SDS011;10605;52.968;8.844;2024-03-23T14:05:09;2.45;;;0.73;;
20890;SDS011;10605;52.968;8.844;2024-03-23T14:07:38;4.40;;;1.48;;
20890;SDS011;10605;52.968;8.844;2024-03-23T14:10:04;5.47;;;1.05;;
20890;SDS011;10605;52.968;8.844;2024-03-23T14:12:31;4.22;;;1.05;;
20890;SDS011;10605;52.968;8.844;2024-03-23T14:14:57;3.08;;;1.13;;
20890;SDS011;10605;52.968;8.844;2024-03-23T14:17:23;2.88;;;1.00;;
20890;SDS011;10605;52.968;8.844;2024-03-23T14:19:49;4.22;;;1.02;;
20890;SDS011;10605;52.968;8.844;2024-03-23T14:22:15;1.35;;;0.70;;
20890;SDS011;10605;52.968;8.844;2024-03-23T14:24:44;4.25;;;1.17;;
20890;SDS011;10605;52.968;8.844;2024-03-23T14:27:10;2.22;;;1.23;;
20890;SDS011;10605;52.968;8.844;2024-03-23T14:29:35;2.20;;;1.10;;
20890;SDS011;10605;52.968;8.844;2024-03-23T14:32:01;2.95;;;1.00;;
20890;SDS011;10605;52.968;8.844;2024-03-23T14:34:27;4.50;;;1.17;;
20890;SDS011;10605;52.968;8.844;2024-03-23T14:36:53;3.75;;;1.25;;
20890;SDS011;10605;52.968;8.844;2024-03-23T14:39:22;5.00;;;1.30;;
20890;SDS011;10605;52.968;8.844;2024-03-23T14:41:49;3.00;;;1.52;;
20890;SDS011;10605;52.968;8.844;2024-03-23T14:44:15;2.55;;;1.50;;
20890;SDS011;10605;52.968;8.844;2024-03-23T14:46:41;3.28;;;1.60;;
20890;SDS011;10605;52.968;8.844;2024-03-23T14:49:06;4.63;;;1.33;;
20890;SDS011;10605;52.968;8.844;2024-03-23T14:51:32;4.30;;;1.50;;
20890;SDS011;10605;52.968;8.844;2024-03-23T14:53:58;2.78;;;1.20;;
20890;SDS011;10605;52.968;8.844;2024-03-23T14:56:24;6.20;;;1.25;;
20890;SDS011;10605;52.968;8.844;2024-03-23T14:58:52;5.38;;;1.20;;
20890;SDS011;10605;52.968;8.844;2024-03-23T15:01:18;2.88;;;1.23;;
20890;SDS011;10605;52.968;8.844;2024-03-23T15:03:44;4.10;;;1.40;;
20890;SDS011;10605;52.968;8.844;2024-03-23T15:06:10;4.82;;;1.25;;
20890;SDS011;10605;52.968;8.844;2024-03-23T15:08:35;3.65;;;1.33;;
20890;SDS011;10605;52.968;8.844;2024-03-23T15:11:07;7.47;;;2.08;;
20890;SDS011;10605;52.968;8.844;2024-03-23T15:13:36;3.35;;;1.50;;
20890;SDS011;10605;52.968;8.844;2024-03-23T15:16:03;5.47;;;1.67;;
20890;SDS011;10605;52.968;8.844;2024-03-23T15:18:30;7.90;;;1.75;;
20890;SDS011;10605;52.968;8.844;2024-03-23T15:20:57;4.03;;;1.40;;
20890;SDS011;10605;52.968;8.844;2024-03-23T15:23:27;8.30;;;1.75;;
20890;SDS011;10605;52.968;8.844;2024-03-23T15:25:57;6.32;;;2.53;;
20890;SDS011;10605;52.968;8.844;2024-03-23T15:28:26;3.60;;;2.42;;
20890;SDS011;10605;52.968;8.844;2024-03-23T15:31:03;5.45;;;3.03;;
20890;SDS011;10605;52.968;8.844;2024-03-23T15:33:32;4.25;;;2.42;;
20890;SDS011;10605;52.968;8.844;2024-03-23T15:35:58;8.85;;;3.20;;
20890;SDS011;10605;52.968;8.844;2024-03-23T15:38:27;3.25;;;1.95;;
20890;SDS011;10605;52.968;8.844;2024-03-23T15:40:56;2.90;;;1.23;;
20890;SDS011;10605;52.968;8.844;2024-03-23T15:43:21;4.35;;;1.42;;
20890;SDS011;10605;52.968;8.844;2024-03-23T15:45:57;6.35;;;1.80;;
20890;SDS011;10605;52.968;8.844;2024-03-23T15:48:24;11.75;;;3.28;;